Terminal Aerodrome Forecast
Issued by NWS Green Bay, WI

Home | Current Version | Previous Version | Text Only | Print | Product List | Glossary Off
Versions: 1 2 3 4 5 6 7 8 9 10 11 12 13 14 15 16 17 18 19 20 21 22 23

000
FTUS43 KGRB 162320
TAFGRB
TAF
KGRB 162320Z 1700/1724 28005KT P6SM SCT040
      TEMPO 1700/1703 SCT030 BKN040
     FM170300 28005KT P6SM SCT090 SCT150
     FM171000 25009KT P6SM SCT250 WS016/27035KT
     FM171500 24013G20KT P6SM SCT250 WS020/27045KT
     FM171800 24016G26KT 6SM BLSN SKC WS020/28050KT=

USA.gov is the U.S. government's official web portal to all federal, state and local government web resources and services.